sensor_id;sensor_type;location;lat;lon;timestamp;temperature;humidity
37412;DHT22;23278;52.110;6.050;2023-08-24T00:00:39;18.10;91.90
37412;DHT22;23278;52.110;6.050;2023-08-24T00:03:05;18.10;92.00
37412;DHT22;23278;52.110;6.050;2023-08-24T00:05:36;18.10;92.10
37412;DHT22;23278;52.110;6.050;2023-08-24T00:08:09;18.10;92.20
37412;DHT22;23278;52.110;6.050;2023-08-24T00:10:36;18.10;92.20
37412;DHT22;23278;52.110;6.050;2023-08-24T00:13:03;18.10;92.30
37412;DHT22;23278;52.110;6.050;2023-08-24T00:15:30;18.00;92.40
37412;DHT22;23278;52.110;6.050;2023-08-24T00:17:56;18.00;92.50
37412;DHT22;23278;52.110;6.050;2023-08-24T00:20:22;17.90;92.50
37412;DHT22;23278;52.110;6.050;2023-08-24T00:22:48;17.90;92.70
37412;DHT22;23278;52.110;6.050;2023-08-24T00:25:14;17.80;92.80
37412;DHT22;23278;52.110;6.050;2023-08-24T00:27:40;17.80;93.00
37412;DHT22;23278;52.110;6.050;2023-08-24T00:30:07;17.70;93.30
37412;DHT22;23278;52.110;6.050;2023-08-24T00:32:34;17.70;93.70
37412;DHT22;23278;52.110;6.050;2023-08-24T00:35:04;17.60;93.60
37412;DHT22;23278;52.110;6.050;2023-08-24T00:37:34;17.60;93.80
37412;DHT22;23278;52.110;6.050;2023-08-24T00:40:00;17.50;93.90
37412;DHT22;23278;52.110;6.050;2023-08-24T00:42:29;17.50;94.00
37412;DHT22;23278;52.110;6.050;2023-08-24T00:44:55;17.50;94.10
37412;DHT22;23278;52.110;6.050;2023-08-24T00:47:21;17.40;94.10
37412;DHT22;23278;52.110;6.050;2023-08-24T00:49:47;17.40;94.10
37412;DHT22;23278;52.110;6.050;2023-08-24T00:52:13;17.40;94.20
37412;DHT22;23278;52.110;6.050;2023-08-24T00:54:41;17.40;94.30
37412;DHT22;23278;52.110;6.050;2023-08-24T00:57:06;17.40;94.30
37412;DHT22;23278;52.110;6.050;2023-08-24T00:59:34;17.40;94.40
37412;DHT22;23278;52.110;6.050;2023-08-24T01:02:00;17.40;94.40
37412;DHT22;23278;52.110;6.050;2023-08-24T01:04:29;17.40;94.60
37412;DHT22;23278;52.110;6.050;2023-08-24T01:06:55;17.40;94.70
37412;DHT22;23278;52.110;6.050;2023-08-24T01:09:22;17.40;94.70
37412;DHT22;23278;52.110;6.050;2023-08-24T01:15:15;17.40;94.80
37412;DHT22;23278;52.110;6.050;2023-08-24T01:17:43;17.40;94.90
37412;DHT22;23278;52.110;6.050;2023-08-24T01:20:10;17.40;94.90
37412;DHT22;23278;52.110;6.050;2023-08-24T01:22:46;17.40;94.90
37412;DHT22;23278;52.110;6.050;2023-08-24T01:25:37;17.40;94.90
37412;DHT22;23278;52.110;6.050;2023-08-24T01:28:05;17.40;95.00
37412;DHT22;23278;52.110;6.050;2023-08-24T01:30:34;17.40;95.00
37412;DHT22;23278;52.110;6.050;2023-08-24T01:33:03;17.40;95.10
37412;DHT22;23278;52.110;6.050;2023-08-24T01:35:30;17.40;95.10
37412;DHT22;23278;52.110;6.050;2023-08-24T01:37:58;17.40;95.40
37412;DHT22;23278;52.110;6.050;2023-08-24T01:40:54;17.30;95.30
37412;DHT22;23278;52.110;6.050;2023-08-24T01:43:27;17.30;95.40
37412;DHT22;23278;52.110;6.050;2023-08-24T01:45:55;17.30;95.50
37412;DHT22;23278;52.110;6.050;2023-08-24T01:48:22;17.20;95.70
37412;DHT22;23278;52.110;6.050;2023-08-24T01:50:49;17.20;95.70
37412;DHT22;23278;52.110;6.050;2023-08-24T01:53:15;17.20;95.70
37412;DHT22;23278;52.110;6.050;2023-08-24T01:55:42;17.20;95.70
37412;DHT22;23278;52.110;6.050;2023-08-24T01:58:08;17.20;95.70
37412;DHT22;23278;52.110;6.050;2023-08-24T02:00:34;17.30;95.80
37412;DHT22;23278;52.110;6.050;2023-08-24T02:03:00;17.30;95.80
37412;DHT22;23278;52.110;6.050;2023-08-24T02:05:26;17.30;95.90
37412;DHT22;23278;52.110;6.050;2023-08-24T02:07:54;17.30;95.80
37412;DHT22;23278;52.110;6.050;2023-08-24T02:10:22;17.40;95.90
37412;DHT22;23278;52.110;6.050;2023-08-24T02:12:48;17.40;95.90
37412;DHT22;23278;52.110;6.050;2023-08-24T02:15:14;17.40;95.90
37412;DHT22;23278;52.110;6.050;2023-08-24T02:17:40;17.40;95.90
37412;DHT22;23278;52.110;6.050;2023-08-24T02:20:06;17.40;96.00
37412;DHT22;23278;52.110;6.050;2023-08-24T02:22:34;17.40;96.00
37412;DHT22;23278;52.110;6.050;2023-08-24T02:25:00;17.50;96.10
37412;DHT22;23278;52.110;6.050;2023-08-24T02:27:31;17.50;96.00
37412;DHT22;23278;52.110;6.050;2023-08-24T02:29:57;17.50;96.10
37412;DHT22;23278;52.110;6.050;2023-08-24T02:32:23;17.60;96.20
37412;DHT22;23278;52.110;6.050;2023-08-24T02:34:49;17.60;96.10
37412;DHT22;23278;52.110;6.050;2023-08-24T02:37:15;17.60;96.10
37412;DHT22;23278;52.110;6.050;2023-08-24T02:39:41;17.60;96.00
37412;DHT22;23278;52.110;6.050;2023-08-24T02:42:07;17.60;96.00
37412;DHT22;23278;52.110;6.050;2023-08-24T02:44:33;17.60;96.00
37412;DHT22;23278;52.110;6.050;2023-08-24T02:46:59;17.70;96.00
37412;DHT22;23278;52.110;6.050;2023-08-24T02:49:25;17.70;96.00
37412;DHT22;23278;52.110;6.050;2023-08-24T02:51:50;17.80;95.90
37412;DHT22;23278;52.110;6.050;2023-08-24T02:54:16;17.80;95.90
37412;DHT22;23278;52.110;6.050;2023-08-24T02:56:42;17.90;96.10
37412;DHT22;23278;52.110;6.050;2023-08-24T02:59:08;17.90;96.20
37412;DHT22;23278;52.110;6.050;2023-08-24T03:01:34;17.90;96.30
37412;DHT22;23278;52.110;6.050;2023-08-24T03:04:04;17.90;96.30
37412;DHT22;23278;52.110;6.050;2023-08-24T03:06:31;18.00;96.50
37412;DHT22;23278;52.110;6.050;2023-08-24T03:08:57;18.00;96.50
37412;DHT22;23278;52.110;6.050;2023-08-24T03:11:23;18.00;96.60
37412;DHT22;23278;52.110;6.050;2023-08-24T03:13:49;18.00;96.70
37412;DHT22;23278;52.110;6.050;2023-08-24T03:16:15;18.00;96.80
37412;DHT22;23278;52.110;6.050;2023-08-24T03:18:41;18.00;96.90
37412;DHT22;23278;52.110;6.050;2023-08-24T03:21:07;18.00;97.00
37412;DHT22;23278;52.110;6.050;2023-08-24T03:23:34;18.00;97.10
37412;DHT22;23278;52.110;6.050;2023-08-24T03:26:00;18.00;97.20
37412;DHT22;23278;52.110;6.050;2023-08-24T03:28:26;18.00;97.40
37412;DHT22;23278;52.110;6.050;2023-08-24T03:30:52;17.90;97.60
37412;DHT22;23278;52.110;6.050;2023-08-24T03:33:21;17.90;97.70
37412;DHT22;23278;52.110;6.050;2023-08-24T03:35:47;17.90;97.90
37412;DHT22;23278;52.110;6.050;2023-08-24T03:38:15;17.90;98.00
37412;DHT22;23278;52.110;6.050;2023-08-24T03:40:41;17.90;98.20
37412;DHT22;23278;52.110;6.050;2023-08-24T03:43:07;17.80;98.40
37412;DHT22;23278;52.110;6.050;2023-08-24T03:45:32;17.80;98.80
37412;DHT22;23278;52.110;6.050;2023-08-24T03:47:58;17.70;99.00
37412;DHT22;23278;52.110;6.050;2023-08-24T03:50:25;17.60;99.10
37412;DHT22;23278;52.110;6.050;2023-08-24T03:52:52;17.60;99.40
37412;DHT22;23278;52.110;6.050;2023-08-24T03:55:20;17.50;99.50
37412;DHT22;23278;52.110;6.050;2023-08-24T03:57:46;17.50;99.60
37412;DHT22;23278;52.110;6.050;2023-08-24T04:00:12;17.50;99.70
37412;DHT22;23278;52.110;6.050;2023-08-24T04:02:41;17.40;99.70
37412;DHT22;23278;52.110;6.050;2023-08-24T04:05:09;17.40;99.80
37412;DHT22;23278;52.110;6.050;2023-08-24T04:07:35;17.40;99.90
37412;DHT22;23278;52.110;6.050;2023-08-24T04:10:05;17.30;99.90
37412;DHT22;23278;52.110;6.050;2023-08-24T04:12:32;17.30;99.90
37412;DHT22;23278;52.110;6.050;2023-08-24T04:14:58;17.20;99.90
37412;DHT22;23278;52.110;6.050;2023-08-24T04:17:25;17.20;99.90
37412;DHT22;23278;52.110;6.050;2023-08-24T04:19:51;17.20;99.90
37412;DHT22;23278;52.110;6.050;2023-08-24T04:22:18;17.10;99.90
37412;DHT22;23278;52.110;6.050;2023-08-24T04:24:44;17.10;99.90
37412;DHT22;23278;52.110;6.050;2023-08-24T04:27:10;17.10;99.90
37412;DHT22;23278;52.110;6.050;2023-08-24T04:29:37;17.00;99.90
37412;DHT22;23278;52.110;6.050;2023-08-24T04:32:03;16.90;99.90
37412;DHT22;23278;52.110;6.050;2023-08-24T04:34:29;16.90;99.90
37412;DHT22;23278;52.110;6.050;2023-08-24T04:36:55;16.80;99.90
37412;DHT22;23278;52.110;6.050;2023-08-24T04:39:21;16.80;99.90
37412;DHT22;23278;52.110;6.050;2023-08-24T04:41:47;16.80;99.90
37412;DHT22;23278;52.110;6.050;2023-08-24T04:44:12;16.80;99.90
37412;DHT22;23278;52.110;6.050;2023-08-24T04:46:38;16.70;99.90
37412;DHT22;23278;52.110;6.050;2023-08-24T04:49:04;16.70;99.90
37412;DHT22;23278;52.110;6.050;2023-08-24T04:51:30;16.70;99.90
37412;DHT22;23278;52.110;6.050;2023-08-24T04:53:56;16.70;99.90
37412;DHT22;23278;52.110;6.050;2023-08-24T04:56:22;16.70;99.90
37412;DHT22;23278;52.110;6.050;2023-08-24T04:58:55;16.70;99.90
37412;DHT22;23278;52.110;6.050;2023-08-24T05:01:26;16.70;99.90
37412;DHT22;23278;52.110;6.050;2023-08-24T05:03:53;16.60;99.90
37412;DHT22;23278;52.110;6.050;2023-08-24T05:06:20;16.70;99.90
37412;DHT22;23278;52.110;6.050;2023-08-24T05:08:46;16.70;99.90
37412;DHT22;23278;52.110;6.050;2023-08-24T05:11:18;16.60;99.90
37412;DHT22;23278;52.110;6.050;2023-08-24T05:13:45;16.60;99.90
37412;DHT22;23278;52.110;6.050;2023-08-24T05:16:12;16.70;99.90
37412;DHT22;23278;52.110;6.050;2023-08-24T05:18:38;16.70;99.90
37412;DHT22;23278;52.110;6.050;2023-08-24T05:21:05;16.70;99.90
37412;DHT22;23278;52.110;6.050;2023-08-24T05:23:35;16.70;99.90
37412;DHT22;23278;52.110;6.050;2023-08-24T05:26:02;16.60;99.90
37412;DHT22;23278;52.110;6.050;2023-08-24T05:28:29;16.60;99.90
37412;DHT22;23278;52.110;6.050;2023-08-24T05:30:56;16.70;99.90
37412;DHT22;23278;52.110;6.050;2023-08-24T05:33:25;16.70;99.90
37412;DHT22;23278;52.110;6.050;2023-08-24T05:35:51;16.70;99.90
37412;DHT22;23278;52.110;6.050;2023-08-24T05:38:17;16.70;99.90
37412;DHT22;23278;52.110;6.050;2023-08-24T05:40:47;16.80;99.90
37412;DHT22;23278;52.110;6.050;2023-08-24T05:43:13;16.80;99.90
37412;DHT22;23278;52.110;6.050;2023-08-24T05:45:39;16.80;99.90
37412;DHT22;23278;52.110;6.050;2023-08-24T05:48:07;16.80;99.90
37412;DHT22;23278;52.110;6.050;2023-08-24T05:50:33;16.90;99.90
37412;DHT22;23278;52.110;6.050;2023-08-24T05:52:59;17.00;99.90
37412;DHT22;23278;52.110;6.050;2023-08-24T05:55:25;17.00;99.90
37412;DHT22;23278;52.110;6.050;2023-08-24T05:57:51;17.00;99.90
37412;DHT22;23278;52.110;6.050;2023-08-24T06:00:17;17.10;99.90
37412;DHT22;23278;52.110;6.050;2023-08-24T06:02:43;17.20;99.90
37412;DHT22;23278;52.110;6.050;2023-08-24T06:05:09;17.20;99.90
37412;DHT22;23278;52.110;6.050;2023-08-24T06:07:36;17.30;99.90
37412;DHT22;23278;52.110;6.050;2023-08-24T06:10:03;17.30;99.90
37412;DHT22;23278;52.110;6.050;2023-08-24T06:12:30;17.30;99.90
37412;DHT22;23278;52.110;6.050;2023-08-24T06:14:57;17.40;99.90
37412;DHT22;23278;52.110;6.050;2023-08-24T06:17:23;17.40;99.90
37412;DHT22;23278;52.110;6.050;2023-08-24T06:19:49;17.50;99.90
37412;DHT22;23278;52.110;6.050;2023-08-24T06:22:15;17.60;99.90
37412;DHT22;23278;52.110;6.050;2023-08-24T06:24:41;17.60;99.90
37412;DHT22;23278;52.110;6.050;2023-08-24T06:27:07;17.70;99.90
37412;DHT22;23278;52.110;6.050;2023-08-24T06:29:33;17.70;99.90
37412;DHT22;23278;52.110;6.050;2023-08-24T06:31:59;17.80;99.90
37412;DHT22;23278;52.110;6.050;2023-08-24T06:34:24;17.90;99.90
37412;DHT22;23278;52.110;6.050;2023-08-24T06:36:52;17.90;99.90
37412;DHT22;23278;52.110;6.050;2023-08-24T06:39:18;18.00;99.90
37412;DHT22;23278;52.110;6.050;2023-08-24T06:41:45;18.10;99.90
37412;DHT22;23278;52.110;6.050;2023-08-24T06:44:10;18.20;99.90
37412;DHT22;23278;52.110;6.050;2023-08-24T06:46:36;18.20;99.90
37412;DHT22;23278;52.110;6.050;2023-08-24T06:49:02;18.20;99.90
37412;DHT22;23278;52.110;6.050;2023-08-24T06:51:28;18.30;99.90
37412;DHT22;23278;52.110;6.050;2023-08-24T06:53:54;18.40;99.90
37412;DHT22;23278;52.110;6.050;2023-08-24T06:56:20;18.50;99.90
37412;DHT22;23278;52.110;6.050;2023-08-24T06:58:48;18.50;99.90
37412;DHT22;23278;52.110;6.050;2023-08-24T07:01:14;18.60;99.90
37412;DHT22;23278;52.110;6.050;2023-08-24T07:03:40;18.60;99.90
37412;DHT22;23278;52.110;6.050;2023-08-24T07:06:06;18.70;99.90
37412;DHT22;23278;52.110;6.050;2023-08-24T07:08:34;18.80;99.90
37412;DHT22;23278;52.110;6.050;2023-08-24T07:11:01;18.80;99.90
37412;DHT22;23278;52.110;6.050;2023-08-24T07:13:27;18.90;99.90
37412;DHT22;23278;52.110;6.050;2023-08-24T07:15:53;18.90;99.90
37412;DHT22;23278;52.110;6.050;2023-08-24T07:18:21;19.00;99.90
37412;DHT22;23278;52.110;6.050;2023-08-24T07:20:47;19.10;99.90
37412;DHT22;23278;52.110;6.050;2023-08-24T07:23:13;19.20;99.90
37412;DHT22;23278;52.110;6.050;2023-08-24T07:25:39;19.20;99.90
37412;DHT22;23278;52.110;6.050;2023-08-24T07:28:05;19.40;99.90
37412;DHT22;23278;52.110;6.050;2023-08-24T07:30:31;19.40;99.90
37412;DHT22;23278;52.110;6.050;2023-08-24T07:32:57;19.50;99.90
37412;DHT22;23278;52.110;6.050;2023-08-24T07:35:23;19.60;99.90
37412;DHT22;23278;52.110;6.050;2023-08-24T07:37:51;19.70;99.90
37412;DHT22;23278;52.110;6.050;2023-08-24T07:40:17;19.80;99.90
37412;DHT22;23278;52.110;6.050;2023-08-24T07:45:10;20.00;99.90
37412;DHT22;23278;52.110;6.050;2023-08-24T07:47:36;20.20;99.90
37412;DHT22;23278;52.110;6.050;2023-08-24T07:50:02;20.30;99.90
37412;DHT22;23278;52.110;6.050;2023-08-24T07:52:28;20.40;99.90
37412;DHT22;23278;52.110;6.050;2023-08-24T07:54:54;20.50;99.90
37412;DHT22;23278;52.110;6.050;2023-08-24T07:57:21;20.60;99.90
37412;DHT22;23278;52.110;6.050;2023-08-24T07:59:47;20.80;99.90
37412;DHT22;23278;52.110;6.050;2023-08-24T08:02:12;20.90;99.90
37412;DHT22;23278;52.110;6.050;2023-08-24T08:04:40;21.10;99.90
37412;DHT22;23278;52.110;6.050;2023-08-24T08:07:07;21.10;99.90
37412;DHT22;23278;52.110;6.050;2023-08-24T08:09:33;21.30;99.70
37412;DHT22;23278;52.110;6.050;2023-08-24T08:11:58;21.50;99.80
37412;DHT22;23278;52.110;6.050;2023-08-24T08:14:26;21.70;99.40
37412;DHT22;23278;52.110;6.050;2023-08-24T08:16:52;21.80;99.20
37412;DHT22;23278;52.110;6.050;2023-08-24T08:19:17;22.00;98.90
37412;DHT22;23278;52.110;6.050;2023-08-24T08:21:45;22.30;98.50
37412;DHT22;23278;52.110;6.050;2023-08-24T08:24:11;22.50;98.00
37412;DHT22;23278;52.110;6.050;2023-08-24T08:26:38;22.80;97.70
37412;DHT22;23278;52.110;6.050;2023-08-24T08:29:03;23.00;97.30
37412;DHT22;23278;52.110;6.050;2023-08-24T08:31:31;23.30;96.80
37412;DHT22;23278;52.110;6.050;2023-08-24T08:33:57;23.60;96.30
37412;DHT22;23278;52.110;6.050;2023-08-24T08:36:22;23.90;95.70
37412;DHT22;23278;52.110;6.050;2023-08-24T08:38:48;24.10;95.20
37412;DHT22;23278;52.110;6.050;2023-08-24T08:41:15;24.40;94.70
37412;DHT22;23278;52.110;6.050;2023-08-24T08:43:42;24.60;94.10
37412;DHT22;23278;52.110;6.050;2023-08-24T08:46:08;24.80;93.50
37412;DHT22;23278;52.110;6.050;2023-08-24T08:48:35;24.90;93.00
37412;DHT22;23278;52.110;6.050;2023-08-24T08:51:02;25.10;92.60
37412;DHT22;23278;52.110;6.050;2023-08-24T08:53:28;25.30;92.20
37412;DHT22;23278;52.110;6.050;2023-08-24T08:55:55;25.50;91.60
37412;DHT22;23278;52.110;6.050;2023-08-24T08:58:23;25.60;91.10
37412;DHT22;23278;52.110;6.050;2023-08-24T09:00:51;25.80;90.70
37412;DHT22;23278;52.110;6.050;2023-08-24T09:03:18;25.90;90.20
37412;DHT22;23278;52.110;6.050;2023-08-24T09:05:47;26.10;88.70
37412;DHT22;23278;52.110;6.050;2023-08-24T09:08:19;26.20;88.30
37412;DHT22;23278;52.110;6.050;2023-08-24T09:10:45;26.40;87.60
37412;DHT22;23278;52.110;6.050;2023-08-24T09:13:11;26.50;86.80
37412;DHT22;23278;52.110;6.050;2023-08-24T09:15:38;26.70;86.10
37412;DHT22;23278;52.110;6.050;2023-08-24T09:18:04;26.90;85.10
37412;DHT22;23278;52.110;6.050;2023-08-24T09:20:30;27.10;84.00
37412;DHT22;23278;52.110;6.050;2023-08-24T09:22:57;27.40;83.20
37412;DHT22;23278;52.110;6.050;2023-08-24T09:25:24;27.60;82.40
37412;DHT22;23278;52.110;6.050;2023-08-24T09:28:00;27.80;80.30
37412;DHT22;23278;52.110;6.050;2023-08-24T09:30:35;28.00;78.90
37412;DHT22;23278;52.110;6.050;2023-08-24T09:33:10;28.20;78.50
37412;DHT22;23278;52.110;6.050;2023-08-24T09:35:37;28.50;77.50
37412;DHT22;23278;52.110;6.050;2023-08-24T09:38:19;28.80;76.40
37412;DHT22;23278;52.110;6.050;2023-08-24T09:40:46;29.10;75.40
37412;DHT22;23278;52.110;6.050;2023-08-24T09:43:16;29.50;72.90
37412;DHT22;23278;52.110;6.050;2023-08-24T09:45:51;30.00;72.00
37412;DHT22;23278;52.110;6.050;2023-08-24T09:48:18;30.50;69.90
37412;DHT22;23278;52.110;6.050;2023-08-24T09:50:46;30.90;67.80
37412;DHT22;23278;52.110;6.050;2023-08-24T09:53:19;31.40;66.10
37412;DHT22;23278;52.110;6.050;2023-08-24T09:55:55;31.50;64.30
37412;DHT22;23278;52.110;6.050;2023-08-24T09:58:24;31.60;62.60
37412;DHT22;23278;52.110;6.050;2023-08-24T10:00:51;31.50;63.10
37412;DHT22;23278;52.110;6.050;2023-08-24T10:03:25;31.60;62.80
37412;DHT22;23278;52.110;6.050;2023-08-24T10:05:56;31.70;62.30
37412;DHT22;23278;52.110;6.050;2023-08-24T10:08:54;31.90;62.00
37412;DHT22;23278;52.110;6.050;2023-08-24T10:11:24;32.20;61.80
37412;DHT22;23278;52.110;6.050;2023-08-24T10:14:13;32.40;61.20
37412;DHT22;23278;52.110;6.050;2023-08-24T10:16:42;32.70;60.60
37412;DHT22;23278;52.110;6.050;2023-08-24T10:19:10;32.50;60.40
37412;DHT22;23278;52.110;6.050;2023-08-24T10:21:37;32.10;60.70
37412;DHT22;23278;52.110;6.050;2023-08-24T10:24:04;31.80;61.30
37412;DHT22;23278;52.110;6.050;2023-08-24T10:26:32;31.50;61.30
37412;DHT22;23278;52.110;6.050;2023-08-24T10:29:00;31.30;61.50
37412;DHT22;23278;52.110;6.050;2023-08-24T10:31:26;31.30;61.40
37412;DHT22;23278;52.110;6.050;2023-08-24T10:33:54;31.20;61.20
37412;DHT22;23278;52.110;6.050;2023-08-24T10:36:21;31.10;61.00
37412;DHT22;23278;52.110;6.050;2023-08-24T10:38:48;31.10;61.00
37412;DHT22;23278;52.110;6.050;2023-08-24T10:41:14;31.10;60.10
37412;DHT22;23278;52.110;6.050;2023-08-24T10:43:41;31.10;60.00
37412;DHT22;23278;52.110;6.050;2023-08-24T10:46:16;31.30;59.80
37412;DHT22;23278;52.110;6.050;2023-08-24T10:51:19;31.60;59.00
37412;DHT22;23278;52.110;6.050;2023-08-24T10:53:51;31.30;59.70
37412;DHT22;23278;52.110;6.050;2023-08-24T10:56:17;30.90;60.30
37412;DHT22;23278;52.110;6.050;2023-08-24T10:58:44;30.60;60.50
37412;DHT22;23278;52.110;6.050;2023-08-24T11:01:17;30.30;61.10
37412;DHT22;23278;52.110;6.050;2023-08-24T11:03:51;30.00;61.80
37412;DHT22;23278;52.110;6.050;2023-08-24T11:06:22;29.60;62.10
37412;DHT22;23278;52.110;6.050;2023-08-24T11:08:49;29.40;62.60
37412;DHT22;23278;52.110;6.050;2023-08-24T11:11:19;29.10;63.00
37412;DHT22;23278;52.110;6.050;2023-08-24T11:14:14;28.80;63.40
37412;DHT22;23278;52.110;6.050;2023-08-24T11:16:43;28.60;63.80
37412;DHT22;23278;52.110;6.050;2023-08-24T11:19:10;28.30;64.30
37412;DHT22;23278;52.110;6.050;2023-08-24T11:21:47;28.20;64.60
37412;DHT22;23278;52.110;6.050;2023-08-24T11:24:14;28.10;64.90
37412;DHT22;23278;52.110;6.050;2023-08-24T11:26:49;28.00;65.20
37412;DHT22;23278;52.110;6.050;2023-08-24T11:29:15;27.90;65.50
37412;DHT22;23278;52.110;6.050;2023-08-24T11:31:44;27.90;65.70
37412;DHT22;23278;52.110;6.050;2023-08-24T11:34:10;27.90;65.90
37412;DHT22;23278;52.110;6.050;2023-08-24T11:36:56;27.90;66.10
37412;DHT22;23278;52.110;6.050;2023-08-24T11:39:23;27.80;66.50
37412;DHT22;23278;52.110;6.050;2023-08-24T11:42:03;27.70;66.80
37412;DHT22;23278;52.110;6.050;2023-08-24T11:44:29;27.70;67.00
37412;DHT22;23278;52.110;6.050;2023-08-24T11:46:57;27.80;67.10
37412;DHT22;23278;52.110;6.050;2023-08-24T11:49:24;27.90;67.10
37412;DHT22;23278;52.110;6.050;2023-08-24T11:51:51;28.10;66.90
37412;DHT22;23278;52.110;6.050;2023-08-24T11:54:19;28.20;66.70
37412;DHT22;23278;52.110;6.050;2023-08-24T11:56:45;28.20;66.70
37412;DHT22;23278;52.110;6.050;2023-08-24T11:59:17;28.30;66.80
37412;DHT22;23278;52.110;6.050;2023-08-24T12:01:45;28.30;66.90
37412;DHT22;23278;52.110;6.050;2023-08-24T12:04:12;28.30;67.00
37412;DHT22;23278;52.110;6.050;2023-08-24T12:06:38;28.30;67.00
37412;DHT22;23278;52.110;6.050;2023-08-24T12:09:06;28.40;66.90
37412;DHT22;23278;52.110;6.050;2023-08-24T12:11:36;28.50;67.00
37412;DHT22;23278;52.110;6.050;2023-08-24T12:14:03;28.50;67.10
37412;DHT22;23278;52.110;6.050;2023-08-24T12:16:32;28.50;67.20
37412;DHT22;23278;52.110;6.050;2023-08-24T12:18:59;28.60;67.30
37412;DHT22;23278;52.110;6.050;2023-08-24T12:21:26;28.70;67.10
37412;DHT22;23278;52.110;6.050;2023-08-24T12:24:00;28.80;67.00
37412;DHT22;23278;52.110;6.050;2023-08-24T12:26:27;28.80;66.70
37412;DHT22;23278;52.110;6.050;2023-08-24T12:28:54;28.80;66.60
37412;DHT22;23278;52.110;6.050;2023-08-24T12:31:22;28.80;66.40
37412;DHT22;23278;52.110;6.050;2023-08-24T12:36:46;29.20;66.00
37412;DHT22;23278;52.110;6.050;2023-08-24T12:39:12;29.40;65.30
37412;DHT22;23278;52.110;6.050;2023-08-24T12:41:38;29.50;65.10
37412;DHT22;23278;52.110;6.050;2023-08-24T12:44:05;29.50;64.70
37412;DHT22;23278;52.110;6.050;2023-08-24T12:46:34;29.60;64.50
37412;DHT22;23278;52.110;6.050;2023-08-24T12:49:01;29.60;64.40
37412;DHT22;23278;52.110;6.050;2023-08-24T12:51:27;29.50;64.60
37412;DHT22;23278;52.110;6.050;2023-08-24T12:53:53;29.40;64.80
37412;DHT22;23278;52.110;6.050;2023-08-24T12:56:19;29.30;64.70
37412;DHT22;23278;52.110;6.050;2023-08-24T12:58:45;29.30;64.60
37412;DHT22;23278;52.110;6.050;2023-08-24T13:01:11;29.40;64.60
37412;DHT22;23278;52.110;6.050;2023-08-24T13:03:40;29.50;64.50
37412;DHT22;23278;52.110;6.050;2023-08-24T13:06:06;29.40;64.80
37412;DHT22;23278;52.110;6.050;2023-08-24T13:08:32;29.20;65.20
37412;DHT22;23278;52.110;6.050;2023-08-24T13:10:58;28.90;65.90
37412;DHT22;23278;52.110;6.050;2023-08-24T13:13:24;28.70;66.30
37412;DHT22;23278;52.110;6.050;2023-08-24T13:15:50;28.50;66.70
37412;DHT22;23278;52.110;6.050;2023-08-24T13:18:17;28.40;67.00
37412;DHT22;23278;52.110;6.050;2023-08-24T13:20:43;28.20;67.20
37412;DHT22;23278;52.110;6.050;2023-08-24T13:23:09;28.10;67.60
37412;DHT22;23278;52.110;6.050;2023-08-24T13:25:35;28.00;68.10
37412;DHT22;23278;52.110;6.050;2023-08-24T13:28:01;27.90;68.30
37412;DHT22;23278;52.110;6.050;2023-08-24T13:30:27;27.90;68.30
37412;DHT22;23278;52.110;6.050;2023-08-24T13:32:53;28.00;68.40
37412;DHT22;23278;52.110;6.050;2023-08-24T13:35:19;28.10;68.60
37412;DHT22;23278;52.110;6.050;2023-08-24T13:37:45;28.30;68.50
37412;DHT22;23278;52.110;6.050;2023-08-24T13:40:11;28.50;68.10
37412;DHT22;23278;52.110;6.050;2023-08-24T13:42:38;28.90;67.80
37412;DHT22;23278;52.110;6.050;2023-08-24T13:45:04;29.10;67.50
37412;DHT22;23278;52.110;6.050;2023-08-24T13:47:31;29.30;67.20
37412;DHT22;23278;52.110;6.050;2023-08-24T13:49:57;29.50;66.80
37412;DHT22;23278;52.110;6.050;2023-08-24T13:52:23;29.60;66.30
37412;DHT22;23278;52.110;6.050;2023-08-24T13:54:49;29.80;65.90
37412;DHT22;23278;52.110;6.050;2023-08-24T13:57:15;29.80;65.50
37412;DHT22;23278;52.110;6.050;2023-08-24T13:59:41;29.80;65.50
37412;DHT22;23278;52.110;6.050;2023-08-24T14:02:07;29.80;65.50
37412;DHT22;23278;52.110;6.050;2023-08-24T14:04:33;29.70;65.70
37412;DHT22;23278;52.110;6.050;2023-08-24T14:06:59;29.60;66.10
37412;DHT22;23278;52.110;6.050;2023-08-24T14:09:25;29.40;66.40
37412;DHT22;23278;52.110;6.050;2023-08-24T14:11:51;29.30;66.80
37412;DHT22;23278;52.110;6.050;2023-08-24T14:14:17;29.20;66.90
37412;DHT22;23278;52.110;6.050;2023-08-24T14:16:43;29.10;67.00
37412;DHT22;23278;52.110;6.050;2023-08-24T14:19:09;29.00;67.40
37412;DHT22;23278;52.110;6.050;2023-08-24T14:21:35;28.90;67.50
37412;DHT22;23278;52.110;6.050;2023-08-24T14:24:01;28.70;67.60
37412;DHT22;23278;52.110;6.050;2023-08-24T14:26:28;28.50;67.90
37412;DHT22;23278;52.110;6.050;2023-08-24T14:28:55;28.30;68.20
37412;DHT22;23278;52.110;6.050;2023-08-24T14:31:26;28.30;68.70
37412;DHT22;23278;52.110;6.050;2023-08-24T14:33:53;28.10;68.90
37412;DHT22;23278;52.110;6.050;2023-08-24T14:36:19;28.10;69.40
37412;DHT22;23278;52.110;6.050;2023-08-24T14:38:46;28.00;69.50
37412;DHT22;23278;52.110;6.050;2023-08-24T14:41:13;28.00;69.90
37412;DHT22;23278;52.110;6.050;2023-08-24T14:43:40;27.90;70.30
37412;DHT22;23278;52.110;6.050;2023-08-24T14:46:06;27.70;70.60
37412;DHT22;23278;52.110;6.050;2023-08-24T14:48:33;27.60;70.90
37412;DHT22;23278;52.110;6.050;2023-08-24T14:50:59;27.50;71.20
37412;DHT22;23278;52.110;6.050;2023-08-24T14:53:26;27.40;71.50
37412;DHT22;23278;52.110;6.050;2023-08-24T14:55:53;27.40;71.80
37412;DHT22;23278;52.110;6.050;2023-08-24T14:58:24;27.40;72.00
37412;DHT22;23278;52.110;6.050;2023-08-24T15:00:51;27.30;72.20
37412;DHT22;23278;52.110;6.050;2023-08-24T15:03:18;27.20;72.40
37412;DHT22;23278;52.110;6.050;2023-08-24T15:06:02;27.10;72.60
37412;DHT22;23278;52.110;6.050;2023-08-24T15:08:33;27.10;72.80
37412;DHT22;23278;52.110;6.050;2023-08-24T15:11:02;27.00;73.00
37412;DHT22;23278;52.110;6.050;2023-08-24T15:13:29;27.00;73.30
37412;DHT22;23278;52.110;6.050;2023-08-24T15:15:56;26.90;73.80
37412;DHT22;23278;52.110;6.050;2023-08-24T15:18:23;26.90;74.00
37412;DHT22;23278;52.110;6.050;2023-08-24T15:20:50;26.80;74.10
37412;DHT22;23278;52.110;6.050;2023-08-24T15:23:26;26.80;74.60
37412;DHT22;23278;52.110;6.050;2023-08-24T15:26:00;26.70;74.60
37412;DHT22;23278;52.110;6.050;2023-08-24T15:28:36;26.70;74.70
37412;DHT22;23278;52.110;6.050;2023-08-24T15:31:03;26.70;74.90
37412;DHT22;23278;52.110;6.050;2023-08-24T15:33:30;26.60;75.10
37412;DHT22;23278;52.110;6.050;2023-08-24T15:35:56;26.60;75.20
37412;DHT22;23278;52.110;6.050;2023-08-24T15:38:22;26.60;75.50
37412;DHT22;23278;52.110;6.050;2023-08-24T15:40:54;26.60;75.50
37412;DHT22;23278;52.110;6.050;2023-08-24T15:43:20;26.70;75.40